Time;durP1;ratioP1;P1;durP2;ratioP2;P2;SDS_P1;SDS_P2;PMS_P1;PMS_P2;Temp;Humidity;BMP_temperature;BMP_pressure;BME280_temperature;BME280_humidity;BME280_pressure;Samples;Min_cycle;Max_cycle;Signal;HPM_P1;HPM_P2
2024/02/02 00:01:35;;;;;;;6.15;4.97;;;;;;;1.63;69.73;97964.50;5051158;28;20075;-62
2024/02/02 00:04:02;;;;;;;5.80;4.57;;;;;;;1.66;69.10;97980.09;5051430;28;20079;-62
2024/02/02 00:06:28;;;;;;;10.00;4.53;;;;;;;1.64;68.97;97979.38;5050229;28;20029;-65
2024/02/02 00:08:54;;;;;;;6.28;4.35;;;;;;;1.62;69.09;97968.09;5051864;28;20414;-63
2024/02/02 00:11:19;;;;;;;6.10;4.28;;;;;;;1.55;68.41;97954.50;5051785;28;20033;-62
2024/02/02 00:13:45;;;;;;;5.63;4.30;;;;;;;1.56;69.12;97951.78;5050263;28;20033;-63
2024/02/02 00:16:10;;;;;;;6.15;4.07;;;;;;;1.60;68.58;97960.31;5050048;28;20044;-62
2024/02/02 00:18:36;;;;;;;7.72;4.30;;;;;;;1.55;68.07;97958.00;5050755;28;20025;-62
2024/02/02 00:21:01;;;;;;;7.25;4.50;;;;;;;1.48;68.17;97935.69;5050645;28;20025;-63
2024/02/02 00:23:27;;;;;;;6.20;4.28;;;;;;;1.58;68.11;97965.69;5050141;28;20108;-62
2024/02/02 00:25:52;;;;;;;5.30;4.20;;;;;;;1.53;68.57;97959.91;5051013;28;20429;-57
2024/02/02 00:28:18;;;;;;;5.97;4.63;;;;;;;1.50;68.44;97951.38;5051253;28;20151;-60
2024/02/02 00:30:44;;;;;;;8.95;5.50;;;;;;;1.62;68.85;97961.03;5050800;28;20075;-60
2024/02/02 00:33:09;;;;;;;8.63;5.80;;;;;;;1.35;68.55;97914.66;5051500;28;20440;-61
2024/02/02 00:35:35;;;;;;;7.55;5.55;;;;;;;1.60;67.98;97946.28;5050246;28;20057;-61
2024/02/02 00:38:00;;;;;;;8.35;5.40;;;;;;;1.53;68.10;97956.44;5050016;28;20451;-62
2024/02/02 00:40:26;;;;;;;8.70;6.07;;;;;;;1.58;68.76;97949.88;5050956;27;20028;-61
2024/02/02 00:42:51;;;;;;;8.98;5.90;;;;;;;1.60;67.97;97943.63;5051332;28;20037;-62
2024/02/02 00:45:17;;;;;;;9.90;6.40;;;;;;;1.58;68.19;97943.75;5050744;28;20428;-62
2024/02/02 00:47:42;;;;;;;8.70;5.93;;;;;;;1.61;67.93;97942.66;5050011;28;20033;-62
2024/02/02 00:50:10;;;;;;;8.60;6.00;;;;;;;1.63;67.43;97951.31;5050810;28;20053;-61
2024/02/02 00:52:36;;;;;;;9.18;5.88;;;;;;;1.56;67.41;97940.38;5051295;28;20093;-62
2024/02/02 00:55:01;;;;;;;9.48;6.47;;;;;;;1.58;67.43;97944.59;5049723;28;20029;-61
2024/02/02 00:57:30;;;;;;;9.75;6.05;;;;;;;1.56;67.69;97941.22;5050889;28;20040;-61
2024/02/02 00:59:55;;;;;;;10.30;5.88;;;;;;;1.55;67.97;97926.34;5050860;28;20033;-61
2024/02/02 01:02:21;;;;;;;8.25;5.25;;;;;;;1.55;67.67;97934.25;5050721;28;20368;-62
2024/02/02 01:04:46;;;;;;;9.35;5.57;;;;;;;1.57;67.09;97921.81;5050507;28;20037;-62
2024/02/02 01:07:15;;;;;;;9.27;5.20;;;;;;;1.60;66.35;97920.75;5050341;28;20198;-61
2024/02/02 01:09:45;;;;;;;7.45;5.18;;;;;;;1.53;66.95;97919.50;5050892;28;20409;-61
2024/02/02 01:12:10;;;;;;;7.22;5.10;;;;;;;1.50;66.95;97915.31;5050744;28;20150;-62
2024/02/02 01:14:39;;;;;;;6.32;4.57;;;;;;;1.57;66.63;97919.16;5050681;28;20115;-62
2024/02/02 01:17:06;;;;;;;6.70;4.00;;;;;;;1.56;66.41;97914.84;5049250;28;20021;-63
2024/02/02 01:19:33;;;;;;;7.10;4.75;;;;;;;1.53;66.85;97914.22;5050090;28;20029;-62
2024/02/02 01:21:58;;;;;;;5.75;4.18;;;;;;;1.29;66.91;97867.63;5050805;28;20572;-61
2024/02/02 01:24:25;;;;;;;7.30;4.75;;;;;;;1.36;67.02;97873.28;5049534;28;20045;-61
2024/02/02 01:26:50;;;;;;;9.68;4.63;;;;;;;1.58;66.88;97906.84;5050028;28;20029;-61
2024/02/02 01:29:16;;;;;;;6.03;4.20;;;;;;;1.61;66.54;97905.75;5050415;28;20412;-61
2024/02/02 01:31:41;;;;;;;7.30;4.45;;;;;;;1.49;66.46;97886.41;5050649;28;20041;-62
2024/02/02 01:34:07;;;;;;;7.38;3.60;;;;;;;1.60;65.91;97904.06;5050553;28;20029;-61
2024/02/02 01:36:33;;;;;;;6.63;3.65;;;;;;;1.60;65.42;97901.44;5049572;28;20159;-62
2024/02/02 01:38:59;;;;;;;5.38;3.65;;;;;;;1.55;65.58;97907.88;5050354;28;20364;-61
2024/02/02 01:41:25;;;;;;;6.55;4.03;;;;;;;1.62;65.74;97904.78;5049436;27;20088;-62
2024/02/02 01:43:50;;;;;;;5.93;3.88;;;;;;;1.62;65.68;97902.16;5032237;28;20029;-61
2024/02/02 01:46:16;;;;;;;3.42;3.10;;;;;;;1.57;65.46;97889.31;5049567;28;20501;-62
2024/02/02 01:48:42;;;;;;;4.82;3.47;;;;;;;1.60;65.93;97904.06;5049294;28;20104;-62
2024/02/02 01:51:07;;;;;;;6.47;3.90;;;;;;;1.55;65.54;97888.56;5049516;28;20464;-61
2024/02/02 01:53:33;;;;;;;5.13;3.45;;;;;;;1.61;65.62;97895.19;5050257;28;20032;-63
2024/02/02 01:55:59;;;;;;;7.15;3.67;;;;;;;1.58;65.10;97894.47;5050023;28;20078;-62
2024/02/02 01:58:26;;;;;;;6.95;3.70;;;;;;;1.55;65.48;97892.06;5048685;28;20025;-64
2024/02/02 02:00:51;;;;;;;7.13;3.83;;;;;;;1.57;65.32;97894.59;5048704;28;20025;-62
2024/02/02 02:03:17;;;;;;;5.57;3.75;;;;;;;1.67;65.01;97881.53;5048494;28;20371;-62
2024/02/02 02:05:43;;;;;;;5.35;3.55;;;;;;;1.63;65.15;97878.31;5049878;28;20044;-63
2024/02/02 02:08:09;;;;;;;4.88;3.55;;;;;;;1.54;65.14;97881.63;5049739;28;20096;-62
2024/02/02 02:10:34;;;;;;;5.43;3.67;;;;;;;1.56;66.04;97882.34;5049404;28;20025;-64
2024/02/02 02:13:00;;;;;;;6.63;4.10;;;;;;;1.52;65.35;97887.03;5050469;28;20085;-62
2024/02/02 02:15:26;;;;;;;4.40;3.47;;;;;;;1.53;65.79;97878.16;5049748;28;20040;-62
2024/02/02 02:17:52;;;;;;;6.07;3.85;;;;;;;1.54;66.08;97877.19;5049107;28;20047;-62
2024/02/02 02:20:22;;;;;;;7.18;4.22;;;;;;;1.45;66.17;97864.72;5048519;28;20033;-63
2024/02/02 02:22:49;;;;;;;6.40;4.15;;;;;;;1.54;65.98;97878.97;5048908;28;20487;-62
2024/02/02 02:25:14;;;;;;;4.45;3.38;;;;;;;1.51;66.02;97881.84;5049183;28;20029;-62
2024/02/02 02:27:40;;;;;;;5.57;4.00;;;;;;;1.52;66.72;97876.47;5049594;28;20500;-61
2024/02/02 02:30:06;;;;;;;5.05;3.85;;;;;;;1.54;66.04;97879.84;5049862;28;20495;-61
2024/02/02 02:32:32;;;;;;;6.20;3.83;;;;;;;1.44;66.16;97868.28;5049245;28;20037;-60
2024/02/02 02:34:58;;;;;;;5.38;3.75;;;;;;;1.47;65.98;97862.78;5049017;28;20039;-61
2024/02/02 02:37:23;;;;;;;7.18;3.70;;;;;;;1.58;66.63;97875.19;5048257;28;20025;-62
2024/02/02 02:39:49;;;;;;;5.88;3.97;;;;;;;1.60;65.96;97883.81;5048457;28;20385;-63
2024/02/02 02:42:15;;;;;;;5.57;3.78;;;;;;;1.53;66.23;97872.88;5048959;27;20044;-61
2024/02/02 02:44:41;;;;;;;10.57;4.60;;;;;;;1.35;66.19;97847.88;5049172;28;20029;-63
2024/02/02 02:47:06;;;;;;;8.63;4.13;;;;;;;1.59;66.27;97884.78;5048366;28;20078;-62
2024/02/02 02:49:32;;;;;;;6.13;4.07;;;;;;;1.60;66.65;97877.69;5049098;28;20459;-62
2024/02/02 02:51:58;;;;;;;6.75;4.07;;;;;;;1.62;66.39;97875.78;5048646;28;20053;-62
2024/02/02 02:54:23;;;;;;;7.05;4.13;;;;;;;1.67;66.48;97890.31;5048085;28;20032;-61
2024/02/02 02:56:49;;;;;;;6.60;4.07;;;;;;;1.66;66.15;97888.63;5049416;28;20025;-63
2024/02/02 02:59:16;;;;;;;5.32;4.05;;;;;;;1.62;66.36;97873.13;5048927;28;20101;-61
2024/02/02 03:01:43;;;;;;;6.97;4.53;;;;;;;1.67;66.15;97878.91;5048788;28;20036;-62
2024/02/02 03:04:09;;;;;;;7.07;4.18;;;;;;;1.68;66.27;97880.56;5048853;28;20061;-61
2024/02/02 03:06:34;;;;;;;7.65;4.22;;;;;;;1.68;66.26;97875.31;5049387;28;20059;-64
2024/02/02 03:09:00;;;;;;;6.95;4.10;;;;;;;1.70;66.00;97873.41;5048901;28;20032;-63
2024/02/02 03:11:25;;;;;;;6.68;4.32;;;;;;;1.71;66.13;97881.19;5048678;28;20029;-63
2024/02/02 03:13:51;;;;;;;6.70;4.20;;;;;;;1.72;66.30;97868.88;5048492;28;20036;-63
2024/02/02 03:16:17;;;;;;;5.35;4.30;;;;;;;1.45;66.14;97837.47;5049095;28;20088;-63
2024/02/02 03:18:42;;;;;;;7.57;4.55;;;;;;;1.70;66.50;97876.06;5048485;28;20037;-61
2024/02/02 03:21:08;;;;;;;7.85;4.47;;;;;;;1.66;66.35;97875.44;5048857;28;20040;-61
2024/02/02 03:23:33;;;;;;;7.22;4.30;;;;;;;1.70;66.68;97868.13;5048791;28;20471;-62
2024/02/02 03:25:59;;;;;;;7.40;4.82;;;;;;;1.71;66.21;97875.09;5049259;28;20036;-62
2024/02/02 03:28:25;;;;;;;6.75;4.70;;;;;;;1.74;66.80;97860.81;5049099;28;20071;-63
2024/02/02 03:30:50;;;;;;;8.65;4.88;;;;;;;1.68;66.10;97855.06;5048277;28;20032;-62
2024/02/02 03:33:16;;;;;;;9.82;4.57;;;;;;;1.75;66.59;97855.44;5048404;28;20029;-62
2024/02/02 03:35:41;;;;;;;8.63;5.30;;;;;;;1.73;66.10;97857.34;5047722;28;20037;-61
2024/02/02 03:38:07;;;;;;;7.50;4.63;;;;;;;1.69;66.64;97858.53;5031126;28;20460;-61
2024/02/02 03:40:32;;;;;;;8.02;4.97;;;;;;;1.64;66.60;97853.59;5048289;28;20037;-62
2024/02/02 03:42:58;;;;;;;7.53;5.03;;;;;;;1.70;66.71;97860.22;5047380;27;20433;-62
2024/02/02 03:45:24;;;;;;;9.95;4.63;;;;;;;1.67;66.38;97868.34;5048479;28;20360;-62
2024/02/02 03:47:49;;;;;;;7.47;4.68;;;;;;;1.68;66.59;97870.03;5048174;28;20065;-63
2024/02/02 03:50:15;;;;;;;7.82;4.85;;;;;;;1.67;66.85;97861.28;5048522;28;20128;-62
2024/02/02 03:52:41;;;;;;;7.18;4.82;;;;;;;1.69;66.43;97874.38;5047781;28;20033;-63
2024/02/02 03:55:07;;;;;;;7.80;5.03;;;;;;;1.71;66.48;97873.28;5048685;28;20041;-62
2024/02/02 03:57:32;;;;;;;8.55;5.10;;;;;;;1.71;67.01;97865.38;5048118;28;20321;-63
2024/02/02 03:59:58;;;;;;;9.30;5.05;;;;;;;1.79;66.31;97870.06;5048593;28;20483;-62
2024/02/02 04:02:23;;;;;;;10.05;5.43;;;;;;;1.64;66.44;97844.84;5051861;28;20048;-62
2024/02/02 04:04:49;;;;;;;8.18;5.35;;;;;;;1.48;66.64;97821.44;5051289;28;20025;-61
2024/02/02 04:07:15;;;;;;;8.80;5.20;;;;;;;1.79;66.74;97877.97;5051402;28;20161;-62
2024/02/02 04:09:40;;;;;;;10.05;4.93;;;;;;;1.80;66.46;97862.97;5052079;28;20040;-64
2024/02/02 04:12:06;;;;;;;6.90;5.22;;;;;;;1.79;66.75;97862.16;5051530;28;20033;-63
2024/02/02 04:14:31;;;;;;;8.93;4.60;;;;;;;1.55;66.21;97820.84;5050942;28;20021;-63
2024/02/02 04:16:57;;;;;;;8.80;5.40;;;;;;;1.83;66.24;97866.22;5051727;28;20128;-63
2024/02/02 04:19:22;;;;;;;9.50;4.80;;;;;;;1.85;66.22;97872.22;5051042;28;20037;-62
2024/02/02 04:21:48;;;;;;;8.98;5.05;;;;;;;1.80;66.16;97858.56;5050719;28;20051;-62
2024/02/02 04:24:13;;;;;;;8.10;4.50;;;;;;;1.81;66.33;97849.69;5051641;28;20044;-62
2024/02/02 04:26:39;;;;;;;10.15;5.25;;;;;;;1.82;66.19;97851.34;5051549;28;20104;-61
2024/02/02 04:29:04;;;;;;;7.35;5.07;;;;;;;1.88;66.42;97859.75;5051113;28;20422;-62
2024/02/02 04:31:30;;;;;;;7.82;5.10;;;;;;;1.70;66.41;97836.47;5051219;28;20108;-60
2024/02/02 04:33:56;;;;;;;9.30;5.07;;;;;;;1.90;66.13;97868.41;5051551;28;20029;-61
2024/02/02 04:36:21;;;;;;;10.05;5.43;;;;;;;1.91;65.94;97870.06;5050920;28;20058;-62
2024/02/02 04:38:47;;;;;;;11.68;5.55;;;;;;;1.90;66.48;97865.75;5050304;28;20025;-61
2024/02/02 04:41:12;;;;;;;9.52;5.40;;;;;;;1.67;66.53;97828.78;5051267;28;20085;-64
2024/02/02 04:43:38;;;;;;;9.40;5.20;;;;;;;1.96;66.45;97863.50;5051313;28;20040;-63
2024/02/02 04:46:03;;;;;;;9.02;5.20;;;;;;;1.98;66.12;97863.38;5050724;27;20132;-62
2024/02/02 04:48:29;;;;;;;8.85;5.30;;;;;;;1.98;65.85;97866.03;5050817;28;20036;-63
2024/02/02 04:50:54;;;;;;;11.80;5.78;;;;;;;1.96;66.28;97860.03;5051022;28;20047;-61
2024/02/02 04:53:20;;;;;;;12.80;5.38;;;;;;;1.96;66.17;97860.03;5050140;28;20487;-63
2024/02/02 04:55:46;;;;;;;11.07;5.10;;;;;;;2.01;66.42;97874.53;5050755;28;20414;-60
2024/02/02 04:58:11;;;;;;;8.63;5.10;;;;;;;2.05;66.00;97872.50;5049409;28;20056;-61
2024/02/02 05:00:37;;;;;;;9.82;5.53;;;;;;;1.99;66.40;97857.16;5049674;28;20049;-62
2024/02/02 05:03:03;;;;;;;9.95;5.60;;;;;;;2.04;65.97;97870.81;5051054;28;20036;-61
2024/02/02 05:05:28;;;;;;;12.20;5.55;;;;;;;1.86;66.17;97847.53;5050911;28;20124;-62
2024/02/02 05:07:54;;;;;;;8.68;5.38;;;;;;;1.99;65.94;97857.16;5050099;28;20120;-62
2024/02/02 05:10:19;;;;;;;11.05;5.78;;;;;;;1.79;66.13;97829.63;5049197;28;20029;-65
2024/02/02 05:12:45;;;;;;;13.40;5.22;;;;;;;2.03;66.73;97878.84;5050225;28;20085;-63
2024/02/02 05:15:11;;;;;;;13.50;6.55;;;;;;;2.03;66.49;97874.44;5050192;28;20141;-63
2024/02/02 05:17:36;;;;;;;9.23;5.25;;;;;;;2.04;65.88;97870.81;5050146;28;20172;-58
2024/02/02 05:20:04;;;;;;;12.88;5.70;;;;;;;2.08;65.89;97885.47;5050177;28;20029;-59
2024/02/02 05:22:30;;;;;;;10.73;5.03;;;;;;;2.04;65.80;97881.38;5050564;28;20093;-60
2024/02/02 05:24:56;;;;;;;8.57;4.63;;;;;;;2.04;65.86;97875.25;5050369;28;20452;-60
2024/02/02 05:27:21;;;;;;;9.50;5.07;;;;;;;2.09;66.07;97878.41;5048894;28;20029;-55
2024/02/02 05:29:48;;;;;;;10.07;4.78;;;;;;;2.08;65.89;97877.53;5050290;28;20099;-65
2024/02/02 05:32:14;;;;;;;9.95;4.80;;;;;;;2.05;66.11;97869.88;5050511;28;20070;-64
2024/02/02 05:34:43;;;;;;;12.25;4.78;;;;;;;2.04;65.59;97870.81;5049656;28;20063;-64
2024/02/02 05:37:09;;;;;;;9.93;4.82;;;;;;;2.07;65.72;97865.31;5049979;28;20041;-65
2024/02/02 05:39:34;;;;;;;10.80;5.22;;;;;;;2.02;66.18;97856.91;5050101;28;20098;-65
2024/02/02 05:42:00;;;;;;;10.00;5.15;;;;;;;2.17;65.50;97877.78;5049499;28;20044;-58
2024/02/02 05:44:26;;;;;;;10.13;5.22;;;;;;;2.13;66.57;97864.81;5049795;28;20029;-61
2024/02/02 05:46:52;;;;;;;9.82;5.35;;;;;;;1.99;65.88;97825.47;5049686;27;20036;-62
2024/02/02 05:49:18;;;;;;;10.60;5.05;;;;;;;2.30;65.84;97875.88;5048739;28;20198;-59
2024/02/02 05:51:43;;;;;;;9.32;5.10;;;;;;;2.32;66.78;97871.31;5050309;28;20041;-63
2024/02/02 05:54:09;;;;;;;10.60;5.22;;;;;;;2.30;66.69;97865.31;5049449;28;20047;-62
2024/02/02 05:56:34;;;;;;;9.35;4.97;;;;;;;2.25;67.61;97867.50;5048922;28;20029;-63
2024/02/02 05:59:00;;;;;;;10.07;5.55;;;;;;;2.26;67.71;97874.44;5048255;28;20460;-64
2024/02/02 06:01:25;;;;;;;15.05;5.57;;;;;;;2.19;67.79;97863.50;5048939;28;20060;-64
2024/02/02 06:03:51;;;;;;;10.13;5.72;;;;;;;1.96;67.59;97826.53;5049512;28;20025;-70
2024/02/02 06:06:16;;;;;;;14.75;6.15;;;;;;;2.27;67.95;97866.38;5049932;28;20028;-64
2024/02/02 06:08:42;;;;;;;12.35;5.10;;;;;;;2.24;67.67;97871.91;5049402;28;20036;-62
2024/02/02 06:11:08;;;;;;;8.90;5.40;;;;;;;2.24;68.17;97871.09;5049524;28;20352;-62
2024/02/02 06:13:34;;;;;;;12.68;5.55;;;;;;;2.25;68.85;97873.59;5048337;28;20025;-62
2024/02/02 06:16:00;;;;;;;12.55;5.68;;;;;;;2.23;68.32;97878.16;5049421;28;20106;-62
2024/02/02 06:18:25;;;;;;;12.43;5.45;;;;;;;1.93;68.05;97833.84;5049624;28;20406;-62
2024/02/02 06:20:52;;;;;;;9.50;4.57;;;;;;;2.00;69.16;97867.56;5049613;28;20033;-63
2024/02/02 06:23:17;;;;;;;8.38;5.10;;;;;;;2.11;68.83;97889.69;5048175;28;20439;-64
2024/02/02 06:25:43;;;;;;;8.63;4.65;;;;;;;1.80;69.16;97841.88;5049290;28;20046;-63
2024/02/02 06:28:09;;;;;;;8.50;5.13;;;;;;;2.03;69.42;97879.72;5049744;28;20033;-63
2024/02/02 06:30:35;;;;;;;8.93;4.93;;;;;;;2.11;69.78;97903.72;5048679;28;20067;-62
2024/02/02 06:33:00;;;;;;;14.98;5.50;;;;;;;1.77;68.98;97832.41;5047807;28;20064;-62
2024/02/02 06:35:27;;;;;;;9.40;4.90;;;;;;;2.00;69.78;97870.22;5048161;28;20033;-64
2024/02/02 06:37:53;;;;;;;8.75;4.88;;;;;;;1.91;69.12;97862.16;5047556;28;20468;-63
2024/02/02 06:40:18;;;;;;;15.05;5.22;;;;;;;2.07;69.05;97885.59;5031880;28;20047;-63
2024/02/02 06:42:44;;;;;;;11.88;5.15;;;;;;;2.13;68.98;97888.59;5048451;28;20036;-62
2024/02/02 06:45:09;;;;;;;10.15;5.32;;;;;;;2.06;69.09;97865.44;5048787;28;20136;-62
2024/02/02 06:47:37;;;;;;;11.18;5.07;;;;;;;2.11;68.72;97898.44;5048504;27;20035;-63
2024/02/02 06:50:07;;;;;;;10.70;5.63;;;;;;;2.18;68.83;97898.81;5049258;28;20049;-63
2024/02/02 06:52:35;;;;;;;12.02;5.50;;;;;;;2.13;68.77;97900.97;5048799;28;20109;-61
2024/02/02 06:55:00;;;;;;;9.85;5.25;;;;;;;2.10;68.56;97878.25;5049005;28;20481;-61
2024/02/02 06:57:31;;;;;;;9.32;4.72;;;;;;;2.28;68.91;97896.28;5048971;28;20037;-63
2024/02/02 06:59:58;;;;;;;8.02;4.47;;;;;;;2.36;68.78;97899.16;5049092;28;20128;-62
2024/02/02 07:02:30;;;;;;;10.73;5.22;;;;;;;2.40;67.95;97892.69;5047594;28;20460;-61
2024/02/02 07:04:57;;;;;;;12.23;5.65;;;;;;;2.49;67.83;97906.16;5053196;28;20049;-61
2024/02/02 07:07:22;;;;;;;8.48;5.03;;;;;;;2.53;68.11;97899.66;5048614;28;20061;-60
2024/02/02 07:09:54;;;;;;;16.35;4.97;;;;;;;2.62;67.92;97911.31;5048048;28;20060;-62
2024/02/02 07:12:34;;;;;;;14.80;6.00;;;;;;;2.79;67.59;97907.31;5048914;28;20068;-63
2024/02/02 07:15:17;;;;;;;12.20;5.07;;;;;;;2.81;67.35;97902.75;5048622;28;20040;-61
2024/02/02 07:17:45;;;;;;;9.65;4.90;;;;;;;2.80;66.98;97903.72;5054343;28;20033;-62
2024/02/02 07:20:23;;;;;;;11.40;4.88;;;;;;;3.00;66.93;97910.91;5048957;28;20029;-62
2024/02/02 07:22:50;;;;;;;14.50;5.13;;;;;;;3.20;65.36;97912.88;5048376;28;20145;-61
2024/02/02 07:25:23;;;;;;;7.82;4.65;;;;;;;3.38;65.13;97915.88;5048851;28;20037;-63
2024/02/02 07:28:03;;;;;;;10.02;4.90;;;;;;;3.49;64.66;97918.47;5029260;28;20065;-61
2024/02/02 07:30:44;;;;;;;9.55;5.00;;;;;;;3.45;65.08;97920.50;5028794;28;20038;-57
2024/02/02 07:33:37;;;;;;;10.57;4.57;;;;;;;3.32;65.12;97925.13;5029214;28;20034;-57
2024/02/02 07:36:06;;;;;;;11.25;5.47;;;;;;;3.13;66.38;97933.69;5031623;28;20085;-59
2024/02/02 07:38:46;;;;;;;8.60;4.55;;;;;;;3.15;65.99;97923.88;5031387;28;20388;-58
2024/02/02 07:41:32;;;;;;;8.68;4.13;;;;;;;3.08;66.76;97917.38;5038965;28;20066;-57
2024/02/02 07:44:00;;;;;;;9.85;5.10;;;;;;;3.34;65.74;97932.94;5051558;28;20041;-60
2024/02/02 07:46:26;;;;;;;18.48;4.63;;;;;;;3.42;65.17;97923.41;5051728;28;20025;-60
2024/02/02 07:48:53;;;;;;;8.82;4.18;;;;;;;3.53;64.19;97933.09;5050256;27;20053;-61
2024/02/02 07:51:19;;;;;;;11.43;4.13;;;;;;;3.32;64.92;97930.41;5051605;28;20033;-61
2024/02/02 07:53:45;;;;;;;9.00;4.05;;;;;;;3.12;64.44;97948.72;5051928;28;20108;-59
2024/02/02 07:56:15;;;;;;;10.05;4.15;;;;;;;3.00;65.99;97947.91;5051497;28;20025;-56
2024/02/02 07:58:41;;;;;;;7.35;3.72;;;;;;;2.88;65.56;97948.88;5051723;28;20028;-59
2024/02/02 08:01:08;;;;;;;9.68;3.80;;;;;;;2.79;65.60;97944.31;5051525;28;20397;-58
2024/02/02 08:03:35;;;;;;;13.00;3.78;;;;;;;2.61;65.15;97944.78;5048877;28;20093;-57
2024/02/02 08:06:01;;;;;;;6.90;3.00;;;;;;;2.70;64.63;97965.25;5029937;27;20034;-61
2024/02/02 08:08:28;;;;;;;8.15;2.83;;;;;;;2.42;63.77;97911.91;5035238;27;20086;-64
2024/02/02 08:10:53;;;;;;;6.75;2.60;;;;;;;2.71;63.88;97947.56;5032555;28;20508;-61
2024/02/02 08:13:19;;;;;;;6.00;2.17;;;;;;;2.82;63.18;97957.28;5046143;28;20029;-62
2024/02/02 08:15:45;;;;;;;4.78;1.90;;;;;;;2.89;62.30;97955.84;5050522;27;20040;-62
2024/02/02 08:18:11;;;;;;;4.47;1.90;;;;;;;3.03;60.88;97961.84;5048158;27;20025;-61
2024/02/02 08:20:36;;;;;;;3.42;1.55;;;;;;;3.17;59.84;97961.59;5046659;27;20336;-63
2024/02/02 08:23:04;;;;;;;3.70;1.60;;;;;;;3.21;59.35;97981.53;5135537;27;20035;-62
2024/02/02 08:25:29;;;;;;;5.00;1.60;;;;;;;3.21;58.95;97965.66;5134613;27;20316;-62
2024/02/02 08:27:55;;;;;;;5.25;1.30;;;;;;;3.30;58.39;97977.31;5126531;27;20058;-56
2024/02/02 08:30:23;;;;;;;3.55;1.02;;;;;;;3.39;58.68;97967.81;5049178;27;20341;-60
2024/02/02 08:32:51;;;;;;;6.40;1.38;;;;;;;3.25;58.25;97940.66;5056797;27;20035;-64
2024/02/02 08:35:21;;;;;;;7.63;1.65;;;;;;;3.59;57.35;97985.53;5054674;27;20029;-61
2024/02/02 08:37:59;;;;;;;5.05;1.48;;;;;;;3.43;56.73;97940.13;5049052;28;20061;-62
2024/02/02 08:40:43;;;;;;;4.80;1.58;;;;;;;4.00;56.11;97984.88;5049134;28;20514;-58
2024/02/02 08:43:14;;;;;;;4.35;1.67;;;;;;;4.07;54.85;97993.16;5050273;28;20025;-65
2024/02/02 08:46:02;;;;;;;4.82;1.00;;;;;;;3.96;54.87;97994.06;5048471;28;20036;-61
2024/02/02 08:48:35;;;;;;;2.30;1.10;;;;;;;3.82;55.86;97996.03;5046420;28;20084;-63
2024/02/02 08:51:01;;;;;;;3.67;1.10;;;;;;;3.62;55.90;97992.38;5049158;27;20190;-63
2024/02/02 08:53:27;;;;;;;4.47;1.60;;;;;;;3.39;55.56;98015.41;5050709;28;20132;-63
2024/02/02 08:56:00;;;;;;;5.45;1.10;;;;;;;3.15;56.32;97971.47;5050321;27;20073;-61
2024/02/02 08:58:31;;;;;;;6.00;1.35;;;;;;;3.14;54.61;97997.03;5049660;28;20033;-61
2024/02/02 09:00:59;;;;;;;3.25;1.08;;;;;;;3.20;55.82;98003.66;5050468;28;20029;-60
2024/02/02 09:03:36;;;;;;;4.30;1.50;;;;;;;3.49;54.94;98000.47;5048604;28;20344;-59
2024/02/02 09:06:07;;;;;;;6.95;1.30;;;;;;;3.36;54.92;98013.00;5062042;27;20033;-57
2024/02/02 09:08:40;;;;;;;4.72;1.35;;;;;;;3.34;54.78;98017.56;5048560;28;20060;-61
2024/02/02 09:11:19;;;;;;;4.75;1.08;;;;;;;3.38;55.07;98025.16;5049964;28;20469;-61
2024/02/02 09:13:45;;;;;;;5.60;1.30;;;;;;;3.22;54.75;98020.25;5049992;27;20021;-62
2024/02/02 09:16:17;;;;;;;5.25;1.42;;;;;;;3.15;54.49;98024.34;5049743;28;20044;-62
2024/02/02 09:18:54;;;;;;;5.20;1.40;;;;;;;3.10;54.85;98022.06;5046443;27;20021;-62
2024/02/02 09:21:23;;;;;;;3.03;0.95;;;;;;;3.05;53.46;98012.81;5072185;27;20103;-61
2024/02/02 09:23:50;;;;;;;7.43;1.10;;;;;;;2.99;53.40;98033.47;5130143;27;20031;-61
2024/02/02 09:26:30;;;;;;;5.00;1.30;;;;;;;3.01;52.72;98022.75;5134203;27;20114;-63
2024/02/02 09:28:59;;;;;;;3.33;1.10;;;;;;;3.22;52.36;98037.91;5134069;27;20027;-61
2024/02/02 09:31:25;;;;;;;3.88;1.10;;;;;;;3.40;52.55;98033.81;5134305;27;20035;-59
2024/02/02 09:33:53;;;;;;;5.28;1.20;;;;;;;3.78;51.28;98041.44;5123658;27;20038;-61
2024/02/02 09:36:24;;;;;;;6.13;1.40;;;;;;;3.97;50.80;98006.34;5028452;28;20104;-62
2024/02/02 09:39:05;;;;;;;4.07;1.30;;;;;;;4.68;49.81;98048.13;5041762;27;20029;-63
2024/02/02 09:41:50;;;;;;;3.38;0.90;;;;;;;4.89;48.66;98044.59;5049141;28;20421;-64
2024/02/02 09:44:16;;;;;;;;;;;;;;;5.28;49.49;98036.78;5030018;28;20037;-64
2024/02/02 09:46:53;;;;;;;;;;;;;;;5.28;50.12;98050.06;5045807;28;20016;-63
2024/02/02 09:49:44;;;;;;;3.13;0.77;;;;;;;4.67;48.28;98045.56;5047546;27;19925;-65
2024/02/02 09:52:45;;;;;;;3.55;1.02;;;;;;;4.21;48.77;98040.53;5046012;28;20306;-61
2024/02/02 09:55:21;;;;;;;3.92;0.90;;;;;;;3.71;49.11;98027.84;5049526;27;20029;-63
2024/02/02 09:58:02;;;;;;;7.68;1.38;;;;;;;3.78;47.75;98044.91;5047582;28;20021;-62
2024/02/02 10:00:58;;;;;;;6.25;1.15;;;;;;;3.77;48.55;98037.09;5048211;28;20032;-66
2024/02/02 10:03:41;;;;;;;4.07;1.05;;;;;;;3.54;47.31;98045.91;5049223;28;20041;-63
2024/02/02 10:06:49;;;;;;;5.20;0.93;;;;;;;3.43;48.42;98051.25;5047850;27;20050;-64
2024/02/02 10:09:33;;;;;;;2.72;1.00;;;;;;;3.24;47.23;98052.69;5037598;27;20048;-62
2024/02/02 10:12:07;;;;;;;5.95;1.00;;;;;;;3.18;46.02;98049.69;5047616;28;20352;-59
2024/02/02 10:14:33;;;;;;;4.23;0.90;;;;;;;3.23;45.85;98058.09;5051791;27;20048;-63
2024/02/02 10:17:36;;;;;;;3.53;1.00;;;;;;;3.31;46.60;98061.00;5047489;28;20380;-62
2024/02/02 10:20:18;;;;;;;2.47;0.90;;;;;;;3.27;45.71;98036.59;5047594;28;20036;-61
2024/02/02 10:23:23;;;;;;;4.60;0.95;;;;;;;3.42;46.50;98063.63;5044426;28;20420;-60
2024/02/02 10:26:21;;;;;;;3.13;1.30;;;;;;;3.33;46.63;98056.44;5048565;28;20040;-63
2024/02/02 10:29:12;;;;;;;3.60;1.00;;;;;;;3.67;46.75;98060.81;5064257;28;20342;-60
2024/02/02 10:31:56;;;;;;;5.03;1.00;;;;;;;3.93;46.80;98060.50;5048575;28;20127;-61
2024/02/02 10:34:47;;;;;;;5.05;0.90;;;;;;;3.84;46.06;98067.41;5045573;28;20069;-60
2024/02/02 10:37:24;;;;;;;4.28;1.38;;;;;;;3.64;46.84;98061.06;5028993;28;20063;-63
2024/02/02 10:39:53;;;;;;;4.65;1.05;;;;;;;3.33;46.65;98067.00;5029377;28;20044;-63
2024/02/02 10:42:35;;;;;;;3.67;1.20;;;;;;;3.11;46.39;98059.91;5028112;28;20060;-61
2024/02/02 10:45:22;;;;;;;5.03;1.20;;;;;;;3.11;47.26;98081.91;5028841;28;20069;-62
2024/02/02 10:48:00;;;;;;;3.80;0.90;;;;;;;3.01;46.21;98079.13;5031444;28;20029;-61
2024/02/02 10:50:50;;;;;;;6.10;1.08;;;;;;;3.01;45.46;98070.34;5028718;28;20063;-61
2024/02/02 10:53:44;;;;;;;3.03;0.70;;;;;;;3.07;44.53;98085.75;5036880;27;20045;-59
2024/02/02 10:56:22;;;;;;;4.88;1.00;;;;;;;2.95;44.61;98086.69;5048497;28;20065;-61
2024/02/02 10:59:08;;;;;;;2.58;0.93;;;;;;;2.80;44.78;98099.28;5048943;28;20039;-62
2024/02/02 11:01:40;;;;;;;4.43;0.80;;;;;;;2.50;43.73;98098.03;5048262;28;20036;-62
2024/02/02 11:04:24;;;;;;;3.03;0.70;;;;;;;2.31;43.25;98096.75;5047843;28;20029;-63
2024/02/02 11:06:54;;;;;;;6.03;1.00;;;;;;;2.17;43.67;98095.13;5048090;28;20033;-62
2024/02/02 11:09:36;;;;;;;5.57;1.10;;;;;;;2.08;44.12;98086.09;5050304;28;20115;-59
2024/02/02 11:12:26;;;;;;;6.55;1.48;;;;;;;1.94;43.65;98112.69;5051384;28;20438;-61
2024/02/02 11:15:04;;;;;;;7.82;1.00;;;;;;;1.66;44.55;98109.38;5050983;28;20029;-61
2024/02/02 11:17:35;;;;;;;4.15;0.93;;;;;;;1.45;43.97;98117.88;5052305;28;20048;-60
2024/02/02 11:20:04;;;;;;;6.93;1.02;;;;;;;1.27;45.09;98120.00;5047470;28;20056;-61
2024/02/02 11:22:52;;;;;;;5.72;1.13;;;;;;;1.14;45.02;98120.00;5030804;28;20044;-60
2024/02/02 11:25:33;;;;;;;5.38;0.90;;;;;;;1.00;45.14;98108.66;5029660;28;20052;-63
2024/02/02 11:28:44;;;;;;;4.25;0.90;;;;;;;1.03;45.20;98118.13;5030535;28;20097;-58
2024/02/02 11:31:25;;;;;;;4.88;0.90;;;;;;;1.06;44.59;98122.34;5049867;28;20069;-58
2024/02/02 11:34:14;;;;;;;8.50;1.52;;;;;;;1.18;45.52;98118.84;5049457;28;20064;-62
2024/02/02 11:37:00;;;;;;;4.65;0.93;;;;;;;1.35;45.42;98127.38;5048985;28;20033;-62
2024/02/02 11:39:38;;;;;;;3.25;0.70;;;;;;;1.49;44.63;98122.00;5050483;28;20430;-61
2024/02/02 11:42:08;;;;;;;6.93;1.10;;;;;;;1.57;44.41;98114.34;5051063;28;20082;-61
2024/02/02 11:44:35;;;;;;;3.35;0.80;;;;;;;1.43;44.24;98082.84;5051620;28;20028;-62
2024/02/02 11:47:04;;;;;;;3.50;0.90;;;;;;;1.84;43.88;98123.88;5051119;28;20040;-63
2024/02/02 11:49:34;;;;;;;2.70;1.00;;;;;;;1.86;43.71;98121.16;5051346;28;20070;-61
2024/02/02 11:52:05;;;;;;;4.47;1.35;;;;;;;1.77;44.63;98121.78;5051398;28;20109;-61
2024/02/02 11:54:38;;;;;;;5.32;1.45;;;;;;;1.80;44.66;98125.06;5038887;28;20044;-62